Time;durP1;ratioP1;P1;durP2;ratioP2;P2;SDS_P1;SDS_P2;PMS_P1;PMS_P2;Temp;Humidity;BMP_temperature;BMP_pressure;BME280_temperature;BME280_humidity;BME280_pressure;Samples;Min_cycle;Max_cycle;Signal;HPM_P1;HPM_P2
2023/06/10 00:00:28;;;;;;;3.80;3.50;;;17.70;69.20;;;;;;5110940;27;20649;-68
2023/06/10 00:02:55;;;;;;;4.17;3.87;;;17.70;68.80;;;;;;5120321;27;20634;-68
2023/06/10 00:05:24;;;;;;;5.07;4.30;;;17.70;69.50;;;;;;5116535;27;20762;-68
2023/06/10 00:07:55;;;;;;;5.33;4.10;;;17.60;69.70;;;;;;5110103;27;21302;-68
2023/06/10 00:10:24;;;;;;;4.40;3.40;;;17.60;71.20;;;;;;5120245;27;20626;-68
2023/06/10 00:12:51;;;;;;;4.10;3.43;;;17.40;71.70;;;;;;5112181;27;20667;-68
2023/06/10 00:15:18;;;;;;;6.03;4.60;;;17.30;72.00;;;;;;5114468;27;20761;-68
2023/06/10 00:17:45;;;;;;;3.77;3.47;;;17.20;72.30;;;;;;5108592;27;20756;-68
2023/06/10 00:20:13;;;;;;;5.10;3.97;;;17.20;72.70;;;;;;5113053;27;20685;-68
2023/06/10 00:22:45;;;;;;;12.80;3.93;;;17.20;74.00;;;;;;5102813;27;20627;-68
2023/06/10 00:25:12;;;;;;;3.57;3.27;;;17.00;74.20;;;;;;5109873;27;20666;-68
2023/06/10 00:27:39;;;;;;;4.40;4.00;;;17.00;73.90;;;;;;5110964;27;20727;-68
2023/06/10 00:30:07;;;;;;;4.00;3.57;;;17.00;74.40;;;;;;5114196;27;20984;-67
2023/06/10 00:32:34;;;;;;;4.47;3.27;;;16.90;74.50;;;;;;5112394;27;20627;-68
2023/06/10 00:35:00;;;;;;;4.40;4.00;;;16.90;74.70;;;;;;5120310;27;20615;-68
2023/06/10 00:37:28;;;;;;;4.53;3.87;;;16.80;75.00;;;;;;5119888;27;20653;-68
2023/06/10 00:39:57;;;;;;;4.77;4.27;;;16.70;75.50;;;;;;5102316;27;20627;-68
2023/06/10 00:42:24;;;;;;;4.33;3.53;;;16.60;76.00;;;;;;5115813;27;20650;-68
2023/06/10 00:44:51;;;;;;;3.83;3.40;;;16.50;76.30;;;;;;5105496;27;20783;-67
2023/06/10 00:47:18;;;;;;;4.43;4.03;;;16.50;76.90;;;;;;5118868;27;20650;-68
2023/06/10 00:49:45;;;;;;;3.60;3.30;;;16.50;77.60;;;;;;5113418;27;20634;-68
2023/06/10 00:52:13;;;;;;;4.83;4.43;;;16.40;78.70;;;;;;5100096;27;20751;-68
2023/06/10 00:54:40;;;;;;;5.83;3.50;;;16.50;79.00;;;;;;5109790;27;20635;-68
2023/06/10 00:57:08;;;;;;;4.10;3.70;;;16.50;79.20;;;;;;5114003;27;21227;-68
2023/06/10 00:59:35;;;;;;;4.43;3.90;;;16.40;79.30;;;;;;5106906;27;21287;-68
2023/06/10 01:02:03;;;;;;;5.57;4.23;;;16.40;80.20;;;;;;5112478;27;20658;-68
2023/06/10 01:04:30;;;;;;;4.00;3.47;;;16.30;80.10;;;;;;5114453;27;20923;-68
2023/06/10 01:07:06;;;;;;;5.43;3.77;;;16.30;80.20;;;;;;5110381;27;20662;-68
2023/06/10 01:09:39;;;;;;;4.33;3.43;;;16.40;80.50;;;;;;5119200;27;20621;-68
2023/06/10 01:12:15;;;;;;;4.20;3.80;;;16.40;81.40;;;;;;5109479;27;20745;-68
2023/06/10 01:14:45;;;;;;;4.40;3.40;;;16.50;80.90;;;;;;5113186;27;20638;-68
2023/06/10 01:17:12;;;;;;;4.00;3.60;;;16.40;83.30;;;;;;5111291;27;20676;-68
2023/06/10 01:19:40;;;;;;;4.20;3.63;;;16.30;84.10;;;;;;5112519;27;21214;-68
2023/06/10 01:22:10;;;;;;;4.43;4.00;;;16.20;85.20;;;;;;5108741;27;21383;-68
2023/06/10 01:24:40;;;;;;;3.87;3.20;;;16.10;85.40;;;;;;5112703;27;20676;-68
2023/06/10 01:27:14;;;;;;;3.27;3.00;;;16.10;84.90;;;;;;5109470;27;20677;-68
2023/06/10 01:29:48;;;;;;;4.20;3.80;;;16.00;85.00;;;;;;5097268;27;20683;-68
2023/06/10 01:32:19;;;;;;;5.17;4.67;;;16.00;86.10;;;;;;5119277;27;21033;-67
2023/06/10 01:34:48;;;;;;;4.17;3.70;;;16.10;85.30;;;;;;5096405;28;20732;-68
2023/06/10 01:37:20;;;;;;;4.40;4.00;;;16.00;86.90;;;;;;5112462;28;20735;-68
2023/06/10 01:39:50;;;;;;;3.87;3.50;;;16.00;87.00;;;;;;5118744;27;20734;-67
2023/06/10 01:42:18;;;;;;;4.20;3.80;;;15.90;87.60;;;;;;5105017;28;21360;-68
2023/06/10 01:44:46;;;;;;;4.53;4.20;;;15.90;88.60;;;;;;5115174;27;20978;-68
2023/06/10 01:47:13;;;;;;;4.57;3.83;;;16.00;86.20;;;;;;5111079;28;20745;-68
2023/06/10 01:49:41;;;;;;;5.40;4.43;;;16.00;88.00;;;;;;5115348;28;20638;-68
2023/06/10 01:52:09;;;;;;;3.77;3.37;;;16.00;86.50;;;;;;5108658;28;20741;-68
2023/06/10 01:54:37;;;;;;;4.37;3.97;;;16.00;88.90;;;;;;5113156;28;20620;-68
2023/06/10 01:57:06;;;;;;;4.30;3.40;;;15.90;89.70;;;;;;5112178;28;20657;-68
2023/06/10 01:59:36;;;;;;;4.47;3.57;;;15.80;89.80;;;;;;5114793;28;20641;-68
2023/06/10 02:02:04;;;;;;;4.13;3.53;;;15.80;88.30;;;;;;5118586;27;20655;-68
2023/06/10 02:04:32;;;;;;;5.20;3.93;;;15.80;88.60;;;;;;5124307;27;20618;-68
2023/06/10 02:07:04;;;;;;;5.22;4.72;;;15.80;88.20;;;;;;5117402;27;20845;-68
2023/06/10 02:09:31;;;;;;;4.70;4.30;;;15.80;88.40;;;;;;5122184;27;20201;-68
2023/06/10 02:11:59;;;;;;;7.10;4.27;;;15.80;87.60;;;;;;5117356;27;20637;-68
2023/06/10 02:14:26;;;;;;;6.73;4.60;;;15.90;86.60;;;;;;5122886;27;20613;-68
2023/06/10 02:16:56;;;;;;;5.00;3.97;;;15.80;86.80;;;;;;5122925;27;20742;-68
2023/06/10 02:19:25;;;;;;;5.20;4.53;;;15.70;88.50;;;;;;5120944;27;20617;-68
2023/06/10 02:21:51;;;;;;;5.30;4.30;;;15.70;87.10;;;;;;5117823;27;20648;-68
2023/06/10 02:24:18;;;;;;;3.87;3.30;;;15.70;86.50;;;;;;5119939;27;20629;-68
2023/06/10 02:26:47;;;;;;;4.00;3.63;;;15.70;87.60;;;;;;5122808;27;20671;-68
2023/06/10 02:29:16;;;;;;;4.57;4.17;;;15.70;86.90;;;;;;5122630;27;20628;-67
2023/06/10 02:31:43;;;;;;;5.03;4.20;;;15.70;86.20;;;;;;5107116;27;21152;-67
2023/06/10 02:34:10;;;;;;;5.10;4.60;;;15.70;86.20;;;;;;5113966;27;21130;-68
2023/06/10 02:36:38;;;;;;;4.33;3.60;;;15.70;86.80;;;;;;5121232;27;20652;-68
2023/06/10 02:39:06;;;;;;;4.33;3.93;;;15.70;86.30;;;;;;5109027;27;20625;-68
2023/06/10 02:41:35;;;;;;;4.90;4.00;;;15.70;86.60;;;;;;5117041;27;20759;-68
2023/06/10 02:44:03;;;;;;;6.60;4.20;;;15.80;86.00;;;;;;5122285;27;20628;-68
2023/06/10 02:46:32;;;;;;;4.50;3.67;;;15.80;86.80;;;;;;5122558;27;20668;-68
2023/06/10 02:48:59;;;;;;;3.70;3.30;;;15.70;86.20;;;;;;5119644;27;20627;-68
2023/06/10 02:51:26;;;;;;;4.63;4.00;;;15.70;86.60;;;;;;5115133;27;20645;-68
2023/06/10 02:53:53;;;;;;;4.27;3.50;;;15.50;87.00;;;;;;5118375;27;21287;-68
2023/06/10 02:56:21;;;;;;;7.27;4.10;;;15.60;86.90;;;;;;5122867;27;20640;-68
2023/06/10 02:58:51;;;;;;;4.33;3.93;;;15.60;88.00;;;;;;5116586;27;20613;-68
2023/06/10 03:01:18;;;;;;;4.17;3.47;;;15.50;88.80;;;;;;5123445;27;20656;-68
2023/06/10 03:03:50;;;;;;;5.87;4.20;;;15.30;89.10;;;;;;5118260;27;20663;-68
2023/06/10 03:06:17;;;;;;;5.20;4.40;;;15.30;89.50;;;;;;5111365;27;20661;-67
2023/06/10 03:08:46;;;;;;;4.63;4.07;;;15.30;88.80;;;;;;5116207;27;21190;-67
2023/06/10 03:11:14;;;;;;;3.50;3.17;;;15.40;89.70;;;;;;5119159;27;20654;-67
2023/06/10 03:13:42;;;;;;;6.10;4.40;;;15.40;89.20;;;;;;5118005;27;20998;-67
2023/06/10 03:16:09;;;;;;;4.63;4.13;;;15.30;89.10;;;;;;5116765;27;20779;-67
2023/06/10 03:18:37;;;;;;;5.87;3.77;;;15.30;90.30;;;;;;5120372;27;21229;-67
2023/06/10 03:21:05;;;;;;;3.53;3.23;;;15.10;90.60;;;;;;5119210;27;20779;-67
2023/06/10 03:23:32;;;;;;;4.67;3.77;;;15.00;90.90;;;;;;5120910;27;20654;-67
2023/06/10 03:26:00;;;;;;;3.40;2.73;;;15.00;91.60;;;;;;5113325;27;20747;-67
2023/06/10 03:28:27;;;;;;;4.70;3.83;;;14.90;91.50;;;;;;5118780;27;21173;-68
2023/06/10 03:30:54;;;;;;;4.77;3.27;;;14.90;92.00;;;;;;5110524;27;20759;-68
2023/06/10 03:33:21;;;;;;;4.37;3.67;;;14.90;92.10;;;;;;5118063;27;20630;-67
2023/06/10 03:35:48;;;;;;;5.60;3.80;;;14.90;92.30;;;;;;5117178;27;20765;-67
2023/06/10 03:38:17;;;;;;;4.70;3.53;;;14.90;92.20;;;;;;5118775;27;20617;-68
2023/06/10 03:40:44;;;;;;;4.37;3.00;;;14.90;92.20;;;;;;5104933;27;20660;-68
2023/06/10 03:43:11;;;;;;;6.10;3.47;;;14.80;92.50;;;;;;5120069;27;21204;-68
2023/06/10 03:45:37;;;;;;;4.07;3.73;;;14.90;93.10;;;;;;5117541;27;20759;-68
2023/06/10 03:48:06;;;;;;;5.60;4.00;;;14.90;93.30;;;;;;5108560;27;20630;-67
2023/06/10 03:50:32;;;;;;;3.70;3.30;;;14.80;93.60;;;;;;5111044;27;20757;-68
2023/06/10 03:52:59;;;;;;;4.03;3.67;;;14.90;93.80;;;;;;5123414;27;21050;-67
2023/06/10 03:55:27;;;;;;;3.80;3.50;;;15.00;93.60;;;;;;5120070;27;20727;-67
2023/06/10 03:57:54;;;;;;;3.17;2.77;;;15.00;93.30;;;;;;5116600;27;21124;-68
2023/06/10 04:00:22;;;;;;;3.90;3.47;;;15.10;92.70;;;;;;5114414;27;20628;-68
2023/06/10 04:02:51;;;;;;;3.40;2.77;;;15.20;92.30;;;;;;5103501;27;20624;-68
2023/06/10 04:05:20;;;;;;;3.30;3.00;;;15.20;92.80;;;;;;5113271;27;20631;-68
2023/06/10 04:07:48;;;;;;;5.17;3.20;;;15.20;92.90;;;;;;5110500;27;20618;-68
2023/06/10 04:10:16;;;;;;;3.53;3.23;;;15.20;92.70;;;;;;5117402;27;21087;-68
2023/06/10 04:12:44;;;;;;;3.77;2.90;;;15.30;92.90;;;;;;5114499;27;20624;-67
2023/06/10 04:15:13;;;;;;;5.47;3.77;;;15.30;93.30;;;;;;5103553;27;20675;-67
2023/06/10 04:17:40;;;;;;;4.57;3.37;;;15.30;93.10;;;;;;5115403;27;21157;-67
2023/06/10 04:20:08;;;;;;;3.40;2.80;;;15.40;92.70;;;;;;5123189;27;20639;-67
2023/06/10 04:22:36;;;;;;;3.90;2.90;;;15.50;92.90;;;;;;5109907;27;20646;-68
2023/06/10 04:25:03;;;;;;;3.40;3.10;;;15.50;93.10;;;;;;5113842;27;20630;-68
2023/06/10 04:27:30;;;;;;;3.63;3.03;;;15.60;92.70;;;;;;5122930;27;20659;-68
2023/06/10 04:29:58;;;;;;;4.10;3.00;;;15.60;92.90;;;;;;5102962;27;20620;-67
2023/06/10 04:32:26;;;;;;;3.57;2.60;;;15.70;92.90;;;;;;5116000;27;20666;-67
2023/06/10 04:34:53;;;;;;;3.63;3.33;;;15.80;92.30;;;;;;5118999;27;20633;-67
2023/06/10 04:37:20;;;;;;;3.03;2.73;;;15.90;92.40;;;;;;5121491;27;20648;-67
2023/06/10 04:39:46;;;;;;;2.60;2.40;;;15.90;92.70;;;;;;5107220;27;20627;-67
2023/06/10 04:42:13;;;;;;;5.70;3.33;;;16.00;93.00;;;;;;5114880;27;20658;-68
2023/06/10 04:44:40;;;;;;;3.20;2.90;;;16.00;93.00;;;;;;5122359;27;20617;-67
2023/06/10 04:47:08;;;;;;;4.00;3.10;;;16.10;92.60;;;;;;5105522;27;20681;-67
2023/06/10 04:49:36;;;;;;;2.73;2.53;;;16.20;92.70;;;;;;5097577;28;20673;-67
2023/06/10 04:52:04;;;;;;;3.43;3.13;;;16.20;92.50;;;;;;5105012;27;20657;-67
2023/06/10 04:54:32;;;;;;;3.63;2.50;;;16.40;92.50;;;;;;5102774;27;20630;-67
2023/06/10 04:56:59;;;;;;;3.30;2.80;;;16.40;92.40;;;;;;5104424;27;21000;-67
2023/06/10 04:59:26;;;;;;;3.27;2.40;;;16.50;92.20;;;;;;5108843;27;21027;-67
2023/06/10 05:01:53;;;;;;;2.10;2.00;;;16.60;91.80;;;;;;5100870;27;20661;-67
2023/06/10 05:04:21;;;;;;;4.67;2.30;;;16.80;91.30;;;;;;5107961;27;20620;-67
2023/06/10 05:06:47;;;;;;;2.63;2.43;;;17.00;91.00;;;;;;5102138;27;21023;-68
2023/06/10 05:09:14;;;;;;;2.33;2.13;;;17.20;90.40;;;;;;5105286;27;20975;-67
2023/06/10 05:11:42;;;;;;;2.60;2.07;;;17.30;90.30;;;;;;5100708;27;21073;-68
2023/06/10 05:14:08;;;;;;;2.50;2.30;;;17.30;90.10;;;;;;5101765;27;20630;-67
2023/06/10 05:16:35;;;;;;;2.60;2.40;;;17.30;90.40;;;;;;5101180;27;20651;-67
2023/06/10 05:19:02;;;;;;;2.97;2.13;;;17.40;89.90;;;;;;5095888;27;20624;-68
2023/06/10 05:21:30;;;;;;;3.97;2.63;;;17.50;90.30;;;;;;5107745;27;20681;-68
2023/06/10 05:23:57;;;;;;;2.63;2.03;;;17.40;90.30;;;;;;5103300;27;20624;-68
2023/06/10 05:26:25;;;;;;;2.13;1.93;;;17.50;90.00;;;;;;5106037;27;20706;-68
2023/06/10 05:28:52;;;;;;;2.60;2.40;;;17.60;90.10;;;;;;5101317;27;20623;-67
2023/06/10 05:31:19;;;;;;;2.33;2.10;;;17.80;89.50;;;;;;5097308;27;20674;-68
2023/06/10 05:33:46;;;;;;;3.53;2.57;;;17.90;89.40;;;;;;5100634;27;20629;-68
2023/06/10 05:36:12;;;;;;;4.27;2.57;;;18.00;90.00;;;;;;5108804;27;20654;-67
2023/06/10 05:38:40;;;;;;;3.57;3.23;;;18.00;90.00;;;;;;5119036;27;20624;-68
2023/06/10 05:41:07;;;;;;;4.13;2.77;;;17.90;90.00;;;;;;5105571;27;21213;-68
2023/06/10 05:43:34;;;;;;;2.90;2.00;;;18.10;90.00;;;;;;5116570;28;20719;-67
2023/06/10 05:46:01;;;;;;;2.83;2.53;;;18.20;88.40;;;;;;5119721;28;20719;-68
2023/06/10 05:48:28;;;;;;;2.83;2.53;;;18.30;87.80;;;;;;5119568;28;20616;-67
2023/06/10 05:50:55;;;;;;;3.33;2.87;;;18.30;88.70;;;;;;5102686;28;20651;-67
2023/06/10 05:53:22;;;;;;;3.40;2.90;;;18.50;87.10;;;;;;5098868;28;20639;-68
2023/06/10 05:55:51;;;;;;;2.90;2.70;;;18.60;87.40;;;;;;5104507;28;20694;-68
2023/06/10 05:58:18;;;;;;;2.47;2.27;;;18.70;87.00;;;;;;5107740;28;20627;-68
2023/06/10 06:00:44;;;;;;;2.90;2.60;;;18.60;87.10;;;;;;5101000;28;20656;-67
2023/06/10 06:03:11;;;;;;;3.80;2.90;;;18.80;87.30;;;;;;5109842;28;20627;-68
2023/06/10 06:05:38;;;;;;;3.27;2.10;;;18.90;87.50;;;;;;5106953;28;21208;-67
2023/06/10 06:08:05;;;;;;;2.90;2.70;;;18.90;87.30;;;;;;5114438;28;20699;-68
2023/06/10 06:10:32;;;;;;;3.93;3.53;;;19.10;85.70;;;;;;5115986;28;21418;-67
2023/06/10 06:13:01;;;;;;;3.03;2.73;;;19.30;84.50;;;;;;5119037;28;20620;-68
2023/06/10 06:15:28;;;;;;;3.50;3.20;;;19.40;85.20;;;;;;5107633;28;20648;-68
2023/06/10 06:17:55;;;;;;;3.23;2.87;;;19.60;84.70;;;;;;5109973;28;20700;-68
2023/06/10 06:20:22;;;;;;;2.83;2.60;;;19.80;82.80;;;;;;5109685;28;21281;-67
2023/06/10 06:22:49;;;;;;;2.90;2.47;;;20.00;82.10;;;;;;5107846;28;20623;-67
2023/06/10 06:25:16;;;;;;;4.20;2.80;;;20.00;81.20;;;;;;5111944;28;20616;-68
2023/06/10 06:27:43;;;;;;;2.00;1.90;;;20.00;81.20;;;;;;5117648;28;20669;-67
2023/06/10 06:30:12;;;;;;;2.90;2.53;;;19.90;80.00;;;;;;5081704;28;20619;-67
2023/06/10 06:32:39;;;;;;;2.60;2.40;;;19.90;80.90;;;;;;5082527;28;20632;-68
2023/06/10 06:35:07;;;;;;;2.87;2.67;;;20.10;81.10;;;;;;5096574;28;20620;-67
2023/06/10 06:37:35;;;;;;;2.70;2.50;;;20.30;80.70;;;;;;5109027;28;20632;-67
2023/06/10 06:40:03;;;;;;;3.10;2.80;;;20.60;79.40;;;;;;5105626;28;20712;-67
2023/06/10 06:42:30;;;;;;;4.87;3.20;;;20.50;79.90;;;;;;5113777;28;20624;-67
2023/06/10 06:44:57;;;;;;;3.27;2.70;;;20.40;79.50;;;;;;5114942;27;20631;-67
2023/06/10 06:47:26;;;;;;;3.60;2.90;;;20.60;79.80;;;;;;5119063;27;20666;-67
2023/06/10 06:49:53;;;;;;;2.87;2.67;;;20.70;78.80;;;;;;5119065;27;20733;-67
2023/06/10 06:52:20;;;;;;;2.97;2.67;;;20.70;77.90;;;;;;5114718;27;21224;-68
2023/06/10 06:54:46;;;;;;;3.50;2.87;;;20.90;80.20;;;;;;5114657;27;20882;-67
2023/06/10 06:57:13;;;;;;;2.83;2.50;;;21.00;77.90;;;;;;5118851;27;20655;-67
2023/06/10 06:59:40;;;;;;;2.87;2.53;;;21.10;77.00;;;;;;5118310;27;20619;-67
2023/06/10 07:02:07;;;;;;;2.83;2.57;;;21.10;77.50;;;;;;5109786;27;20657;-67
2023/06/10 07:04:35;;;;;;;3.77;2.80;;;21.20;76.30;;;;;;5109048;27;20635;-67
2023/06/10 07:07:02;;;;;;;4.57;3.17;;;21.20;76.70;;;;;;5107855;27;20758;-67
2023/06/10 07:09:29;;;;;;;3.27;2.97;;;21.10;77.60;;;;;;5107620;27;20742;-68
2023/06/10 07:11:56;;;;;;;3.23;2.90;;;21.30;77.80;;;;;;5117268;27;20654;-67
2023/06/10 07:14:22;;;;;;;3.40;3.10;;;21.60;77.10;;;;;;5104671;27;20629;-67
2023/06/10 07:16:49;;;;;;;3.90;3.50;;;21.70;76.70;;;;;;5123849;27;20646;-67
2023/06/10 07:19:16;;;;;;;3.40;3.00;;;21.70;75.80;;;;;;5116265;27;20638;-67
2023/06/10 07:21:44;;;;;;;4.03;3.50;;;21.80;77.10;;;;;;5121870;27;20658;-67
2023/06/10 07:24:11;;;;;;;3.50;3.10;;;22.00;74.50;;;;;;5110874;27;20615;-67
2023/06/10 07:26:38;;;;;;;2.80;2.60;;;21.90;75.50;;;;;;5103566;27;20655;-67
2023/06/10 07:29:05;;;;;;;2.60;2.37;;;22.00;75.20;;;;;;5120168;27;20616;-67
2023/06/10 07:31:31;;;;;;;3.00;2.60;;;22.10;73.70;;;;;;5119049;27;20663;-67
2023/06/10 07:33:58;;;;;;;3.13;2.83;;;22.10;74.10;;;;;;5116932;27;20981;-67
2023/06/10 07:36:27;;;;;;;3.50;3.20;;;22.00;74.40;;;;;;5114126;27;20648;-68
2023/06/10 07:38:55;;;;;;;2.73;2.53;;;22.10;75.40;;;;;;5099561;27;20638;-67
2023/06/10 07:41:25;;;;;;;3.70;3.20;;;22.30;74.40;;;;;;5107979;27;20643;-68
2023/06/10 07:43:54;;;;;;;3.97;2.87;;;22.50;72.00;;;;;;5119759;27;20624;-67
2023/06/10 07:46:21;;;;;;;3.07;2.63;;;22.50;73.10;;;;;;5121908;27;20651;-67
2023/06/10 07:48:48;;;;;;;2.97;2.73;;;22.60;72.80;;;;;;5110776;27;20682;-68
2023/06/10 07:51:16;;;;;;;2.93;2.60;;;22.70;73.60;;;;;;5118421;27;20651;-67
2023/06/10 07:53:43;;;;;;;2.57;2.37;;;22.90;71.50;;;;;;5122057;27;20627;-68
2023/06/10 07:56:11;;;;;;;2.93;2.73;;;22.80;71.80;;;;;;5108792;27;20667;-68
2023/06/10 07:58:37;;;;;;;3.07;2.77;;;23.10;72.80;;;;;;5117216;27;21213;-68
2023/06/10 08:01:04;;;;;;;3.20;2.90;;;23.20;72.50;;;;;;5115344;27;21006;-68
2023/06/10 08:03:31;;;;;;;3.60;3.30;;;23.20;72.00;;;;;;5118973;27;20700;-67
2023/06/10 08:05:58;;;;;;;3.80;3.40;;;23.30;70.80;;;;;;5120689;27;20665;-67
2023/06/10 08:08:25;;;;;;;3.47;3.17;;;23.30;70.10;;;;;;5115374;27;20758;-68
2023/06/10 08:10:51;;;;;;;4.17;2.90;;;23.30;70.10;;;;;;5114390;27;20651;-67
2023/06/10 08:13:19;;;;;;;3.20;3.00;;;23.30;70.70;;;;;;5115350;27;20640;-68
2023/06/10 08:15:47;;;;;;;2.43;2.23;;;23.40;69.90;;;;;;5113402;27;20652;-67
2023/06/10 08:18:14;;;;;;;2.67;2.47;;;23.50;69.70;;;;;;5120960;27;21044;-67
2023/06/10 08:20:41;;;;;;;2.97;2.70;;;23.40;69.60;;;;;;5120607;27;20647;-68
2023/06/10 08:23:08;;;;;;;4.00;3.00;;;23.60;69.80;;;;;;5119753;27;20623;-67
2023/06/10 08:25:34;;;;;;;4.20;3.50;;;23.70;70.10;;;;;;5111406;27;20650;-68
2023/06/10 08:28:01;;;;;;;3.73;3.43;;;23.80;69.20;;;;;;5109054;27;20668;-68
2023/06/10 08:30:30;;;;;;;3.30;3.00;;;24.00;68.80;;;;;;5110346;27;20683;-67
2023/06/10 08:32:56;;;;;;;3.57;3.27;;;24.00;69.10;;;;;;5113577;27;20719;-67
2023/06/10 08:35:23;;;;;;;4.70;3.30;;;24.10;67.80;;;;;;5102797;27;20994;-68
2023/06/10 08:37:50;;;;;;;3.50;3.20;;;24.10;65.90;;;;;;5107718;27;20617;-68
2023/06/10 08:40:17;;;;;;;3.57;3.27;;;24.10;66.50;;;;;;5104915;27;20647;-68
2023/06/10 08:42:49;;;;;;;3.13;2.90;;;24.20;66.20;;;;;;5101371;28;20965;-67
2023/06/10 08:45:18;;;;;;;3.77;3.47;;;24.20;65.80;;;;;;5103640;27;20624;-67
2023/06/10 08:47:52;;;;;;;3.53;3.23;;;24.40;65.80;;;;;;5105230;27;20660;-67
2023/06/10 08:50:19;;;;;;;3.87;3.57;;;24.60;66.50;;;;;;5097099;27;20631;-67
2023/06/10 08:52:49;;;;;;;3.80;3.40;;;24.80;66.50;;;;;;5108708;27;20613;-67
2023/06/10 08:55:19;;;;;;;3.60;3.30;;;24.90;66.60;;;;;;5106961;27;20627;-67
2023/06/10 08:57:47;;;;;;;3.47;3.27;;;24.80;64.90;;;;;;5099197;27;20656;-67
2023/06/10 09:00:15;;;;;;;3.30;3.10;;;24.90;66.30;;;;;;5103637;27;21282;-67
2023/06/10 09:02:43;;;;;;;3.93;3.53;;;25.00;64.60;;;;;;5116866;27;20633;-67
2023/06/10 09:05:12;;;;;;;4.17;3.80;;;25.00;64.60;;;;;;5100757;27;20688;-67
2023/06/10 09:07:46;;;;;;;3.73;3.43;;;25.10;64.80;;;;;;5102675;27;21014;-67
2023/06/10 09:10:14;;;;;;;3.30;2.97;;;25.20;63.60;;;;;;5100265;27;20629;-67
2023/06/10 09:12:43;;;;;;;5.00;3.90;;;25.30;64.00;;;;;;5099173;27;21215;-68
2023/06/10 09:15:12;;;;;;;3.63;3.33;;;25.50;64.80;;;;;;5101361;27;20639;-67
2023/06/10 09:17:40;;;;;;;3.57;3.27;;;25.40;62.40;;;;;;5106019;27;20967;-67
2023/06/10 09:20:11;;;;;;;4.10;3.40;;;25.50;63.80;;;;;;5102733;27;21079;-68
2023/06/10 09:22:39;;;;;;;4.13;3.77;;;25.40;62.70;;;;;;5102190;27;20751;-67
2023/06/10 09:25:08;;;;;;;3.07;2.80;;;25.50;63.10;;;;;;5100908;27;20698;-68
2023/06/10 09:27:45;;;;;;;3.70;3.40;;;25.50;61.60;;;;;;5101850;27;20668;-68
2023/06/10 09:30:25;;;;;;;3.10;2.87;;;25.60;61.40;;;;;;5097051;28;20712;-67
2023/06/10 09:32:52;;;;;;;4.40;4.00;;;25.60;60.70;;;;;;5100036;27;20628;-68
2023/06/10 09:35:19;;;;;;;4.37;3.97;;;25.60;61.00;;;;;;5099107;28;20643;-68
2023/06/10 09:37:47;;;;;;;4.07;3.77;;;25.70;61.10;;;;;;5108137;27;20723;-68
2023/06/10 09:40:14;;;;;;;5.30;4.50;;;25.80;62.10;;;;;;5098100;28;20646;-68
2023/06/10 09:42:44;;;;;;;3.47;3.20;;;25.90;61.20;;;;;;5101906;28;20631;-68
2023/06/10 09:45:11;;;;;;;4.27;3.90;;;26.00;60.90;;;;;;5099431;28;20616;-68
2023/06/10 09:47:37;;;;;;;3.23;2.80;;;26.00;60.00;;;;;;5101733;28;20665;-68
2023/06/10 09:50:05;;;;;;;3.70;3.30;;;26.00;60.60;;;;;;5105996;28;20634;-69
2023/06/10 09:52:32;;;;;;;3.17;2.87;;;26.00;62.40;;;;;;5105165;28;20633;-67
2023/06/10 09:55:02;;;;;;;3.63;3.33;;;25.90;59.90;;;;;;5102703;28;20624;-67
2023/06/10 09:57:33;;;;;;;3.20;2.90;;;25.80;59.30;;;;;;5103329;28;20979;-67
2023/06/10 10:00:00;;;;;;;3.70;3.40;;;26.00;60.10;;;;;;5099146;28;20627;-67
2023/06/10 10:02:27;;;;;;;3.93;3.57;;;26.20;58.80;;;;;;5099902;28;20664;-67
2023/06/10 10:04:53;;;;;;;3.07;2.83;;;26.20;59.00;;;;;;5103432;28;20622;-68
2023/06/10 10:07:20;;;;;;;3.47;3.17;;;26.30;58.80;;;;;;5115342;28;20668;-68
2023/06/10 10:09:47;;;;;;;3.80;3.40;;;26.20;57.80;;;;;;5099974;28;20640;-68
2023/06/10 10:12:17;;;;;;;3.80;2.90;;;26.30;58.30;;;;;;5108866;28;20695;-67
2023/06/10 10:14:47;;;;;;;3.63;3.33;;;26.60;57.50;;;;;;5106800;28;20637;-68
2023/06/10 10:17:16;;;;;;;4.07;3.67;;;26.60;58.50;;;;;;5103918;28;20714;-67
2023/06/10 10:19:49;;;;;;;5.10;3.50;;;26.60;58.20;;;;;;5097573;28;20727;-67
2023/06/10 10:22:21;;;;;;;3.07;2.87;;;26.40;57.60;;;;;;5099647;27;20651;-68
2023/06/10 10:24:51;;;;;;;3.90;3.60;;;26.50;57.40;;;;;;5102524;27;20629;-68
2023/06/10 10:27:28;;;;;;;3.73;3.43;;;26.70;57.70;;;;;;5106440;27;20646;-68
2023/06/10 10:29:58;;;;;;;3.23;2.90;;;26.90;57.60;;;;;;5110308;27;21092;-68
2023/06/10 10:32:33;;;;;;;3.60;3.30;;;27.20;56.20;;;;;;5104532;27;20661;-68
2023/06/10 10:35:05;;;;;;;4.40;4.00;;;27.40;57.00;;;;;;5106327;27;20736;-68
2023/06/10 10:37:32;;;;;;;3.73;3.43;;;27.10;56.50;;;;;;5117333;27;20615;-67
2023/06/10 10:40:02;;;;;;;3.72;3.42;;;27.20;56.30;;;;;;5114191;27;20740;-67
2023/06/10 10:42:31;;;;;;;3.93;3.63;;;27.50;56.80;;;;;;5110984;27;20204;-67
2023/06/10 10:44:59;;;;;;;4.60;4.20;;;27.80;57.10;;;;;;5104693;27;21112;-67
2023/06/10 10:47:30;;;;;;;3.33;3.03;;;28.20;56.70;;;;;;5120318;27;20658;-68
2023/06/10 10:49:58;;;;;;;3.40;3.10;;;28.30;54.60;;;;;;5113152;27;20631;-68
2023/06/10 10:52:26;;;;;;;3.80;3.50;;;28.60;54.10;;;;;;5122761;27;20653;-68
2023/06/10 10:54:54;;;;;;;4.37;4.03;;;28.50;54.20;;;;;;5118207;27;20629;-68
2023/06/10 10:57:23;;;;;;;3.83;3.43;;;28.60;53.70;;;;;;5118875;27;20661;-69
2023/06/10 10:59:56;;;;;;;4.13;3.57;;;28.70;54.50;;;;;;5101888;27;20726;-67
2023/06/10 11:02:42;;;;;;;3.93;3.63;;;29.10;52.10;;;;;;5111853;27;20695;-68
2023/06/10 11:05:11;;;;;;;4.03;3.73;;;29.20;54.80;;;;;;5119601;27;21276;-67
2023/06/10 11:07:38;;;;;;;3.30;3.00;;;29.20;53.40;;;;;;5122149;27;20637;-67
2023/06/10 11:10:09;;;;;;;3.83;3.60;;;28.70;53.80;;;;;;5117491;27;20641;-68
2023/06/10 11:12:58;;;;;;;3.80;3.43;;;28.60;54.30;;;;;;5114575;27;20706;-67
2023/06/10 11:15:27;;;;;;;4.47;4.07;;;28.50;53.20;;;;;;5094737;27;20679;-67
2023/06/10 11:18:15;;;;;;;3.97;3.67;;;28.80;53.90;;;;;;5098829;28;20635;-68
2023/06/10 11:21:01;;;;;;;3.93;3.60;;;29.30;52.10;;;;;;5096589;27;20652;-68
2023/06/10 11:23:42;;;;;;;3.27;2.80;;;29.60;51.80;;;;;;5105307;27;20629;-69
2023/06/10 11:26:32;;;;;;;3.80;3.50;;;30.00;50.30;;;;;;5104289;27;20658;-69
2023/06/10 11:29:08;;;;;;;3.83;3.53;;;29.90;49.80;;;;;;5096505;27;20756;-68
2023/06/10 11:31:44;;;;;;;3.43;3.13;;;29.30;50.70;;;;;;5102283;27;20654;-69
2023/06/10 11:34:11;;;;;;;3.60;3.30;;;29.30;50.80;;;;;;5098004;27;20998;-68
2023/06/10 11:36:42;;;;;;;3.00;2.80;;;29.80;51.10;;;;;;5103799;27;20658;-69
2023/06/10 11:39:09;;;;;;;3.90;3.60;;;30.30;50.40;;;;;;5101561;27;20759;-69
2023/06/10 11:41:38;;;;;;;3.40;3.20;;;30.90;49.20;;;;;;5103632;27;20652;-69
2023/06/10 11:44:08;;;;;;;4.87;4.47;;;31.40;50.30;;;;;;5099428;27;20967;-70
2023/06/10 11:46:36;;;;;;;5.17;3.90;;;31.80;48.30;;;;;;5098296;27;20763;-70
2023/06/10 11:49:05;;;;;;;3.17;2.90;;;32.30;48.30;;;;;;5097062;28;20669;-68
2023/06/10 11:51:34;;;;;;;3.37;3.07;;;31.80;47.70;;;;;;5104007;27;20687;-69
2023/06/10 11:54:02;;;;;;;4.13;3.83;;;31.40;47.20;;;;;;5106421;27;20634;-69
2023/06/10 11:56:31;;;;;;;3.90;3.60;;;30.80;48.60;;;;;;5113285;27;20648;-70
2023/06/10 11:59:00;;;;;;;4.13;3.83;;;30.50;49.20;;;;;;5115368;27;20617;-69
2023/06/10 12:01:28;;;;;;;3.80;3.50;;;30.50;48.90;;;;;;5115781;27;20643;-69
2023/06/10 12:04:00;;;;;;;3.53;3.23;;;30.10;48.50;;;;;;5113010;27;20944;-70
2023/06/10 12:06:27;;;;;;;3.80;3.50;;;29.80;50.20;;;;;;5112216;27;20766;-70
2023/06/10 12:08:56;;;;;;;3.70;3.40;;;29.40;50.10;;;;;;5116316;27;21256;-70
2023/06/10 12:11:23;;;;;;;3.83;3.53;;;29.80;50.40;;;;;;5101771;27;20655;-70
2023/06/10 12:13:51;;;;;;;3.60;3.30;;;31.30;48.50;;;;;;5107300;27;20645;-70
2023/06/10 12:16:19;;;;;;;4.13;3.73;;;32.40;48.50;;;;;;5099153;27;21018;-70
2023/06/10 12:18:48;;;;;;;3.30;3.00;;;33.70;46.10;;;;;;5117924;27;20984;-69
2023/06/10 12:21:25;;;;;;;3.53;3.23;;;34.40;44.40;;;;;;5113415;27;20667;-69
2023/06/10 12:24:06;;;;;;;3.40;3.20;;;33.70;43.80;;;;;;5111167;27;20651;-69
2023/06/10 12:26:41;;;;;;;2.80;2.60;;;33.80;43.70;;;;;;5115937;27;20676;-70
2023/06/10 12:29:18;;;;;;;3.47;3.27;;;33.70;44.30;;;;;;5113622;27;20758;-75
2023/06/10 12:32:00;;;;;;;3.33;3.03;;;34.80;43.60;;;;;;5104337;27;20642;-77
2023/06/10 12:34:45;;;;;;;3.37;3.17;;;35.60;42.50;;;;;;5114363;27;20997;-79
2023/06/10 12:37:14;;;;;;;4.00;3.70;;;36.40;41.60;;;;;;5111954;27;20901;-78
2023/06/10 12:39:42;;;;;;;3.10;2.90;;;37.00;40.90;;;;;;5115576;27;20674;-78
2023/06/10 12:42:10;;;;;;;3.10;2.90;;;37.10;40.20;;;;;;5109478;27;20594;-78
2023/06/10 12:44:40;;;;;;;3.50;2.80;;;35.60;40.60;;;;;;5117902;27;20733;-78
2023/06/10 12:47:12;;;;;;;3.23;2.93;;;34.10;43.20;;;;;;5113913;27;20249;-78
2023/06/10 12:49:39;;;;;;;3.33;3.03;;;32.80;43.40;;;;;;5112739;27;20627;-78
2023/06/10 12:52:07;;;;;;;9.23;4.20;;;32.60;45.20;;;;;;5107173;27;20741;-78
2023/06/10 12:54:36;;;;;;;3.93;3.60;;;32.40;45.80;;;;;;5112741;27;20660;-78